Terminal Aerodrome Forecast
Issued by NWS Twin Cities, MN

Home | Current Version | Previous Version | Text Only | Print | Product List | Glossary On
Versions: 1 2 3 4 5 6 7 8 9 10 11 12 13 14 15 16 17 18 19 20 21 22 23 24 25 26
000
FTUS43 KMPX 301100
TAFMSP
TAF
KMSP 301139Z 3012/0118 09010KT P6SM OVC009
     FM301400 10011KT P6SM OVC011
     FM301700 11012KT P6SM SCT020 BKN250
     FM302000 12012G19KT P6SM SCT025 BKN050
     FM010100 13011KT P6SM VCSH BKN025 OVC050
     FM010900 14011KT 6SM -SHRA BR BKN008 OVC015=

USA.gov is the U.S. government's official web portal to all federal, state and local government web resources and services.